createdAt,value
2023-03-12T00:02:04.198Z,13.60
2023-03-12T00:04:41.832Z,10.90
2023-03-12T00:07:16.846Z,10.40
2023-03-12T00:09:46.916Z,10.50
2023-03-12T00:12:15.961Z,9.60
2023-03-12T00:14:45.459Z,9.50
2023-03-12T00:17:14.380Z,11.70
2023-03-12T00:19:45.759Z,9.50
2023-03-12T00:22:22.773Z,9.90
2023-03-12T00:24:57.280Z,9.80
2023-03-12T00:27:26.791Z,9.70
2023-03-12T00:29:57.986Z,9.50
2023-03-12T00:32:32.384Z,9.50
2023-03-12T00:35:02.657Z,9.50
2023-03-12T00:37:35.338Z,9.50
2023-03-12T00:40:06.200Z,10.20
2023-03-12T00:42:41.349Z,10.10
2023-03-12T00:45:13.436Z,10.90
2023-03-12T00:47:44.912Z,9.90
2023-03-12T00:50:16.171Z,11.50
2023-03-12T00:52:45.730Z,10.90
2023-03-12T00:55:19.882Z,9.10
2023-03-12T00:57:49.299Z,9.80
2023-03-12T01:00:25.447Z,8.50
2023-03-12T01:02:59.387Z,9.00
2023-03-12T01:05:32.944Z,8.90
2023-03-12T01:08:05.435Z,11.10
2023-03-12T01:10:36.140Z,10.20
2023-03-12T01:13:05.423Z,11.70
2023-03-12T01:15:37.299Z,12.70
2023-03-12T01:18:06.182Z,9.60
2023-03-12T01:20:35.354Z,10.40
2023-03-12T01:23:08.102Z,11.60
2023-03-12T01:25:37.714Z,11.00
2023-03-12T01:28:09.481Z,10.10
2023-03-12T01:30:53.047Z,11.60
2023-03-12T01:33:25.220Z,10.10
2023-03-12T01:35:54.169Z,10.10
2023-03-12T01:38:25.852Z,10.10
2023-03-12T01:40:54.953Z,9.70
2023-03-12T01:43:46.069Z,10.90
2023-03-12T01:46:38.075Z,9.40
2023-03-12T01:49:29.134Z,9.40
2023-03-12T01:52:11.213Z,8.90
2023-03-12T01:54:56.032Z,9.80
2023-03-12T01:57:43.616Z,8.30
2023-03-12T02:00:23.675Z,9.10
2023-03-12T02:03:05.118Z,8.50
2023-03-12T02:05:47.286Z,8.60
2023-03-12T02:08:20.637Z,8.00
2023-03-12T02:10:49.500Z,9.70
2023-03-12T02:13:18.834Z,9.00
2023-03-12T02:15:49.110Z,8.50
2023-03-12T02:18:22.505Z,8.00
2023-03-12T02:21:26.084Z,7.40
2023-03-12T02:24:29.341Z,7.60
2023-03-12T02:27:04.254Z,7.00
2023-03-12T02:29:36.025Z,7.60
2023-03-12T02:32:10.471Z,7.60
2023-03-12T02:34:44.586Z,7.00
2023-03-12T02:37:24.541Z,6.50
2023-03-12T02:40:16.060Z,6.60
2023-03-12T02:42:49.484Z,6.20
2023-03-12T02:45:36.016Z,7.00
2023-03-12T02:48:09.382Z,6.50
2023-03-12T02:50:45.474Z,7.30
2023-03-12T02:53:17.089Z,6.00
2023-03-12T02:55:45.923Z,5.50
2023-03-12T02:58:17.571Z,5.70
2023-03-12T03:00:46.598Z,7.10
2023-03-12T03:03:20.091Z,7.00
2023-03-12T03:05:51.834Z,6.40
2023-03-12T03:08:23.132Z,5.60
2023-03-12T03:10:55.132Z,5.30
2023-03-12T03:13:31.387Z,5.60
2023-03-12T03:16:06.038Z,6.30
2023-03-12T03:18:35.528Z,6.40
2023-03-12T03:21:10.834Z,6.10
2023-03-12T03:23:43.023Z,6.30
2023-03-12T03:26:14.880Z,7.80
2023-03-12T03:28:46.529Z,7.20
2023-03-12T03:33:47.951Z,6.40
2023-03-12T03:36:18.585Z,6.80
2023-03-12T03:39:05.146Z,5.70
2023-03-12T03:41:34.967Z,5.60
2023-03-12T03:44:07.585Z,6.60
2023-03-12T03:46:38.176Z,5.90
2023-03-12T03:49:14.082Z,5.70
2023-03-12T03:51:52.335Z,6.40
2023-03-12T03:54:31.963Z,6.00
2023-03-12T03:57:12.585Z,5.80
2023-03-12T03:59:44.943Z,5.10
2023-03-12T04:02:20.373Z,6.20
2023-03-12T04:05:01.794Z,5.80
2023-03-12T04:07:38.396Z,5.40
2023-03-12T04:10:11.861Z,5.60
2023-03-12T04:12:40.868Z,5.40
2023-03-12T04:15:12.599Z,6.10
2023-03-12T04:17:48.812Z,6.50
2023-03-12T04:20:18.110Z,7.10
2023-03-12T04:22:48.816Z,6.20
2023-03-12T04:25:19.734Z,5.00
2023-03-12T04:28:02.160Z,5.60
2023-03-12T04:30:38.197Z,5.50
2023-03-12T04:33:14.860Z,4.80
2023-03-12T04:35:57.394Z,4.80
2023-03-12T04:41:11.873Z,5.10
2023-03-12T04:43:46.306Z,5.70
2023-03-12T04:46:15.576Z,4.70
2023-03-12T04:48:47.624Z,5.10
2023-03-12T04:51:18.186Z,5.60
2023-03-12T04:53:49.576Z,5.60
2023-03-12T04:56:19.087Z,9.80
2023-03-12T04:58:52.945Z,6.50
2023-03-12T05:01:29.025Z,5.80
2023-03-12T05:03:58.154Z,5.80
2023-03-12T05:06:29.349Z,5.80
2023-03-12T05:09:01.675Z,5.30
2023-03-12T05:11:39.908Z,5.10
2023-03-12T05:14:12.469Z,5.20
2023-03-12T05:19:11.624Z,6.00
2023-03-12T05:21:44.504Z,5.80
2023-03-12T05:24:19.020Z,5.40
2023-03-12T05:26:48.231Z,6.00
2023-03-12T05:29:25.518Z,7.10
2023-03-12T05:32:04.757Z,7.60
2023-03-12T05:34:37.468Z,5.50
2023-03-12T05:37:07.370Z,6.70
2023-03-12T05:39:46.532Z,5.80
2023-03-12T05:42:26.852Z,5.60
2023-03-12T05:47:31.100Z,6.80
2023-03-12T05:50:07.874Z,5.60
2023-03-12T05:52:57.010Z,5.60
2023-03-12T05:55:37.515Z,6.70
2023-03-12T05:58:08.009Z,4.90
2023-03-12T06:00:38.637Z,5.10
2023-03-12T06:03:23.563Z,6.20
2023-03-12T06:06:21.113Z,4.30
2023-03-12T06:09:10.747Z,5.70
2023-03-12T06:12:04.277Z,13.70
2023-03-12T06:15:01.224Z,6.50
2023-03-12T06:17:35.527Z,7.40
2023-03-12T06:20:16.515Z,7.70
2023-03-12T06:22:47.381Z,5.60
2023-03-12T06:25:25.429Z,5.00
2023-03-12T06:28:03.899Z,4.90
2023-03-12T06:30:52.214Z,4.40
2023-03-12T06:33:24.835Z,4.40
2023-03-12T06:36:09.725Z,5.20
2023-03-12T06:38:49.550Z,5.90
2023-03-12T06:41:23.881Z,5.50
2023-03-12T06:44:00.296Z,5.00
2023-03-12T06:46:33.705Z,5.00
2023-03-12T06:49:12.490Z,4.30
2023-03-12T06:52:00.073Z,5.00
2023-03-12T06:54:35.575Z,5.70
2023-03-12T06:57:23.592Z,4.80
2023-03-12T07:00:03.467Z,5.00
2023-03-12T07:02:36.313Z,4.90
2023-03-12T07:05:09.424Z,6.30
2023-03-12T07:07:44.252Z,4.70
2023-03-12T07:10:15.874Z,5.50
2023-03-12T07:12:45.718Z,5.00
2023-03-12T07:15:14.503Z,5.20
2023-03-12T07:17:42.901Z,4.60
2023-03-12T07:20:39.112Z,5.40
2023-03-12T07:23:38.407Z,4.80
2023-03-12T07:26:16.373Z,4.40
2023-03-12T07:28:50.895Z,5.00
2023-03-12T07:31:29.748Z,3.50
2023-03-12T07:34:05.930Z,4.50
2023-03-12T07:36:42.619Z,4.40
2023-03-12T07:39:14.563Z,4.00
2023-03-12T07:41:45.098Z,4.00
2023-03-12T07:44:14.435Z,3.90
2023-03-12T07:46:43.782Z,4.20
2023-03-12T07:49:17.808Z,4.40
2023-03-12T07:51:50.223Z,4.10
2023-03-12T07:54:19.551Z,3.60
2023-03-12T07:56:56.518Z,3.70
2023-03-12T07:59:26.563Z,4.20
2023-03-12T08:01:55.206Z,4.50
2023-03-12T08:04:25.622Z,5.00
2023-03-12T08:06:54.879Z,3.60
2023-03-12T08:09:29.453Z,4.50
2023-03-12T08:12:01.664Z,4.10
2023-03-12T08:14:46.767Z,4.50
2023-03-12T08:17:26.851Z,4.30
2023-03-12T08:20:11.525Z,5.00
2023-03-12T08:22:55.709Z,5.40
2023-03-12T08:25:28.604Z,4.60
2023-03-12T08:28:02.016Z,4.70
2023-03-12T08:30:38.029Z,5.50
2023-03-12T08:33:14.378Z,4.70
2023-03-12T08:35:51.384Z,3.60
2023-03-12T08:38:22.278Z,4.20
2023-03-12T08:41:05.215Z,3.20
2023-03-12T08:43:37.367Z,3.60
2023-03-12T08:46:06.523Z,4.30
2023-03-12T08:48:41.128Z,4.20
2023-03-12T08:51:19.227Z,4.30
2023-03-12T08:53:54.928Z,5.00
2023-03-12T08:56:23.706Z,5.20
2023-03-12T08:59:06.917Z,4.60
2023-03-12T09:01:43.717Z,4.90
2023-03-12T09:04:17.693Z,5.80
2023-03-12T09:06:59.362Z,5.30
2023-03-12T09:12:19.327Z,5.00
2023-03-12T09:15:03.399Z,4.40
2023-03-12T09:17:37.537Z,4.40
2023-03-12T09:20:14.252Z,4.40
2023-03-12T09:22:53.075Z,4.40
2023-03-12T09:25:23.186Z,3.50
2023-03-12T09:28:03.960Z,4.30
2023-03-12T09:30:36.312Z,3.60
2023-03-12T09:33:07.346Z,4.20
2023-03-12T09:35:37.372Z,3.60
2023-03-12T09:38:15.150Z,3.30
2023-03-12T09:40:50.440Z,3.10
2023-03-12T09:48:39.710Z,4.60
2023-03-12T09:51:25.283Z,3.60
2023-03-12T09:54:03.440Z,2.80
2023-03-12T09:57:08.834Z,3.50
2023-03-12T09:59:42.763Z,3.50
2023-03-12T10:02:57.739Z,3.60
2023-03-12T10:06:07.071Z,2.70
2023-03-12T10:09:07.894Z,3.80
2023-03-12T10:12:36.435Z,4.50
2023-03-12T10:15:41.118Z,4.70
2023-03-12T10:18:54.106Z,2.70
2023-03-12T10:21:54.780Z,4.10
2023-03-12T10:24:57.196Z,2.90
2023-03-12T10:27:40.335Z,3.10
2023-03-12T10:30:28.303Z,2.80
2023-03-12T10:33:10.366Z,5.10
2023-03-12T10:35:54.490Z,3.50
2023-03-12T10:38:36.199Z,3.80
2023-03-12T10:41:44.136Z,4.20
2023-03-12T10:44:43.759Z,4.50
2023-03-12T10:47:44.397Z,4.00
2023-03-12T10:50:23.621Z,3.70
2023-03-12T10:53:19.180Z,3.60
2023-03-12T10:56:47.406Z,2.60
2023-03-12T10:59:28.946Z,2.80
2023-03-12T11:02:40.237Z,2.90
2023-03-12T11:05:55.173Z,4.20
2023-03-12T11:08:38.279Z,3.60
2023-03-12T11:11:37.586Z,4.60
2023-03-12T11:14:18.863Z,4.40
2023-03-12T11:17:00.938Z,5.50
2023-03-12T11:19:37.502Z,3.20
2023-03-12T11:22:37.386Z,4.00
2023-03-12T11:25:42.669Z,7.60
2023-03-12T11:28:40.906Z,4.70
2023-03-12T11:31:47.488Z,5.40
2023-03-12T11:34:41.962Z,3.40
2023-03-12T11:38:19.699Z,5.90
2023-03-12T11:40:58.437Z,4.70
2023-03-12T11:43:43.886Z,4.10
2023-03-12T11:47:07.578Z,3.40
2023-03-12T11:50:13.223Z,3.80
2023-03-12T11:53:12.832Z,3.80
2023-03-12T11:56:07.381Z,3.10
2023-03-12T11:59:03.088Z,2.90
2023-03-12T12:02:08.898Z,3.80
2023-03-12T12:05:17.395Z,4.40
2023-03-12T12:08:16.931Z,3.50
2023-03-12T12:11:35.426Z,4.50
2023-03-12T12:14:59.511Z,8.60
2023-03-12T12:18:10.792Z,4.00
2023-03-12T12:21:20.070Z,5.40
2023-03-12T12:24:18.122Z,6.00
2023-03-12T12:27:29.300Z,21.80
2023-03-12T12:30:51.922Z,4.80
2023-03-12T12:34:04.669Z,8.20
2023-03-12T12:36:50.125Z,6.70
2023-03-12T12:39:43.113Z,7.10
2023-03-12T12:42:33.879Z,9.60
2023-03-12T12:45:15.419Z,6.40
2023-03-12T12:48:17.130Z,7.60
2023-03-12T12:51:08.703Z,3.40
2023-03-12T12:54:06.223Z,3.20
2023-03-12T12:57:04.669Z,5.10
2023-03-12T13:00:21.439Z,4.30
2023-03-12T13:03:08.354Z,3.70
2023-03-12T13:06:06.050Z,8.10
2023-03-12T13:09:27.711Z,6.70
2023-03-12T13:12:11.452Z,4.90
2023-03-12T13:14:52.895Z,7.20
2023-03-12T13:18:16.827Z,6.60
2023-03-12T13:21:12.056Z,10.80
2023-03-12T13:24:08.212Z,6.20
2023-03-12T13:26:59.253Z,5.10
2023-03-12T13:29:41.435Z,4.90
2023-03-12T13:32:40.473Z,3.80
2023-03-12T13:35:45.414Z,3.90
2023-03-12T13:39:01.423Z,4.50
2023-03-12T13:42:03.852Z,5.40
2023-03-12T13:44:53.562Z,7.10
2023-03-12T13:47:47.196Z,5.30
2023-03-12T13:50:26.431Z,12.00
2023-03-12T13:53:19.160Z,4.60
2023-03-12T13:56:24.138Z,5.50
2023-03-12T13:59:29.138Z,3.80
2023-03-12T14:06:13.648Z,7.70
2023-03-12T14:09:30.813Z,7.60
2023-03-12T14:12:40.642Z,6.10
2023-03-12T14:15:12.907Z,6.10
2023-03-12T14:17:59.278Z,9.00
2023-03-12T14:20:34.372Z,9.70
2023-03-12T14:23:28.318Z,8.40
2023-03-12T14:26:04.404Z,7.10
2023-03-12T14:28:44.320Z,5.90
2023-03-12T14:34:32.051Z,6.40
2023-03-12T14:37:31.127Z,6.10
2023-03-12T14:40:51.810Z,7.10
2023-03-12T14:43:36.184Z,6.50
2023-03-12T14:46:26.004Z,4.40
2023-03-12T14:49:23.988Z,5.20
2023-03-12T14:52:06.355Z,8.00
2023-03-12T14:54:43.465Z,5.30
2023-03-12T14:57:27.117Z,6.70
2023-03-12T15:00:13.996Z,5.60
2023-03-12T15:02:56.851Z,8.10
2023-03-12T15:05:37.853Z,5.40
2023-03-12T15:08:22.288Z,5.70
2023-03-12T15:11:01.440Z,6.30
2023-03-12T15:13:43.110Z,6.50
2023-03-12T15:16:30.248Z,9.30
2023-03-12T15:19:23.299Z,9.70
2023-03-12T15:22:01.849Z,6.90
2023-03-12T15:24:48.626Z,7.80
2023-03-12T15:27:43.804Z,6.90
2023-03-12T15:30:41.674Z,10.10
2023-03-12T15:33:18.626Z,9.80
2023-03-12T15:36:18.109Z,18.10
2023-03-12T15:43:14.403Z,15.10
2023-03-12T15:46:29.414Z,14.70
2023-03-12T15:49:36.962Z,10.70
2023-03-12T15:52:38.560Z,11.10
2023-03-12T15:55:31.168Z,9.60
2023-03-12T15:58:38.961Z,19.90
2023-03-12T16:01:36.190Z,15.50
2023-03-12T16:04:27.267Z,16.00
2023-03-12T16:07:14.653Z,20.10
2023-03-12T16:09:55.582Z,16.90
2023-03-12T16:12:28.821Z,16.90
2023-03-12T16:15:03.281Z,26.80
2023-03-12T16:17:49.785Z,60.30
2023-03-12T16:20:35.532Z,97.60
2023-03-12T16:23:14.581Z,48.60
2023-03-12T16:26:00.770Z,21.30
2023-03-12T16:28:45.264Z,20.10
2023-03-12T16:31:26.434Z,17.50
2023-03-12T16:34:16.696Z,17.20
2023-03-12T16:37:03.216Z,16.60
2023-03-12T16:39:52.598Z,13.80
2023-03-12T16:46:00.945Z,20.80
2023-03-12T16:48:47.013Z,22.90
2023-03-12T16:51:32.863Z,19.30
2023-03-12T16:54:14.235Z,16.40
2023-03-12T16:56:57.037Z,17.70
2023-03-12T16:59:34.619Z,30.40
2023-03-12T17:02:24.828Z,26.40
2023-03-12T17:05:16.860Z,27.00
2023-03-12T17:08:11.739Z,48.70
2023-03-12T17:10:45.508Z,35.70
2023-03-12T17:13:33.008Z,31.40
2023-03-12T17:16:10.431Z,37.70
2023-03-12T17:18:47.042Z,35.90
2023-03-12T17:21:27.394Z,57.20
2023-03-12T17:24:08.839Z,44.80
2023-03-12T17:26:43.639Z,63.20
2023-03-12T17:29:12.596Z,62.90
2023-03-12T17:31:41.676Z,46.60
2023-03-12T17:34:22.074Z,56.70
2023-03-12T17:36:57.717Z,53.70
2023-03-12T17:39:52.221Z,49.00
2023-03-12T17:42:34.550Z,45.30
2023-03-12T17:45:10.854Z,43.20
2023-03-12T17:47:52.477Z,50.30
2023-03-12T17:50:21.818Z,43.40
2023-03-12T17:53:02.330Z,46.50
2023-03-12T17:55:31.290Z,56.90
2023-03-12T17:58:02.306Z,87.30
2023-03-12T18:00:35.052Z,120.30
2023-03-12T18:03:08.386Z,53.10
2023-03-12T18:05:43.928Z,44.70
2023-03-12T18:08:19.215Z,36.70
2023-03-12T18:11:10.098Z,46.70
2023-03-12T18:13:44.398Z,49.70
2023-03-12T18:16:18.577Z,54.90
2023-03-12T18:18:53.406Z,50.50
2023-03-12T18:21:35.905Z,50.60
2023-03-12T18:24:25.867Z,49.30
2023-03-12T18:27:06.698Z,46.30
2023-03-12T18:29:41.071Z,46.90
2023-03-12T18:32:24.152Z,43.00
2023-03-12T18:35:06.035Z,45.30
2023-03-12T18:37:51.765Z,42.10
2023-03-12T18:40:32.438Z,39.10
2023-03-12T18:43:04.497Z,36.50
2023-03-12T18:45:45.551Z,33.50
2023-03-12T18:48:21.786Z,34.70
2023-03-12T18:51:13.764Z,30.50
2023-03-12T18:54:04.670Z,29.40
2023-03-12T18:56:43.050Z,29.80
2023-03-12T18:59:21.494Z,29.70
2023-03-12T19:02:14.098Z,29.30
2023-03-12T19:04:48.560Z,28.20
2023-03-12T19:07:21.968Z,32.30
2023-03-12T19:10:40.497Z,32.00
2023-03-12T19:13:27.379Z,40.50
2023-03-12T19:16:10.344Z,41.70
2023-03-12T19:18:59.162Z,33.50
2023-03-12T19:21:32.806Z,31.50
2023-03-12T19:24:07.413Z,31.50
2023-03-12T19:26:57.027Z,28.70
2023-03-12T19:29:36.633Z,30.20
2023-03-12T19:32:11.895Z,29.10
2023-03-12T19:34:50.082Z,29.30
2023-03-12T19:37:34.647Z,28.80
2023-03-12T19:40:09.118Z,27.60
2023-03-12T19:42:44.846Z,36.80
2023-03-12T19:45:20.361Z,35.20
2023-03-12T19:47:55.051Z,32.60
2023-03-12T19:50:30.016Z,31.60
2023-03-12T19:53:25.879Z,30.60
2023-03-12T19:56:00.820Z,29.00
2023-03-12T20:01:10.147Z,27.40
2023-03-12T20:03:45.630Z,29.70
2023-03-12T20:06:20.540Z,25.00
2023-03-12T20:08:50.684Z,24.10
2023-03-12T20:11:28.609Z,22.20
2023-03-12T20:14:09.658Z,19.70
2023-03-12T20:16:43.325Z,14.80
2023-03-12T20:19:18.803Z,12.30
2023-03-12T20:21:52.899Z,13.10
2023-03-12T20:24:24.108Z,10.40
2023-03-12T20:26:58.305Z,7.30
2023-03-12T20:29:37.770Z,7.50
2023-03-12T20:32:08.774Z,6.90
2023-03-12T20:34:37.476Z,7.20
2023-03-12T20:37:11.877Z,8.30
2023-03-12T20:39:44.149Z,25.60
2023-03-12T20:42:15.311Z,9.70
2023-03-12T20:44:45.082Z,8.90
2023-03-12T20:47:23.985Z,8.50
2023-03-12T20:50:04.732Z,9.50
2023-03-12T20:52:43.539Z,7.20
2023-03-12T20:55:24.952Z,7.40
2023-03-12T20:58:02.087Z,9.20
2023-03-12T21:00:34.653Z,9.60
2023-03-12T21:03:19.387Z,9.70
2023-03-12T21:06:02.972Z,10.20
2023-03-12T21:08:37.195Z,10.90
2023-03-12T21:11:11.964Z,9.80
2023-03-12T21:13:47.450Z,10.10
2023-03-12T21:16:16.450Z,8.10
2023-03-12T21:18:54.792Z,8.50
2023-03-12T21:21:33.185Z,8.60
2023-03-12T21:24:09.841Z,10.20
2023-03-12T21:26:39.846Z,17.50
2023-03-12T21:29:08.732Z,15.50
2023-03-12T21:31:44.059Z,12.80
2023-03-12T21:34:25.135Z,12.40
2023-03-12T21:40:09.452Z,9.80
2023-03-12T21:42:58.485Z,8.70
2023-03-12T21:45:41.739Z,11.40
2023-03-12T21:48:22.627Z,13.00
2023-03-12T21:51:06.650Z,15.30
2023-03-12T21:53:46.174Z,18.00
2023-03-12T21:56:24.188Z,24.20
2023-03-12T21:58:57.527Z,26.50
2023-03-12T22:02:31.936Z,30.80
2023-03-12T22:05:21.800Z,37.90
2023-03-12T22:08:25.519Z,27.90
2023-03-12T22:11:12.995Z,26.60
2023-03-12T22:13:59.923Z,23.50
2023-03-12T22:16:33.505Z,22.30
2023-03-12T22:19:28.165Z,21.30
2023-03-12T22:22:22.147Z,20.00
2023-03-12T22:25:06.318Z,19.60
2023-03-12T22:31:43.182Z,13.50
2023-03-12T22:34:18.151Z,10.80
2023-03-12T22:36:53.169Z,11.60
2023-03-12T22:39:24.689Z,10.40
2023-03-12T22:42:01.937Z,9.90
2023-03-12T22:44:46.912Z,10.50
2023-03-12T22:47:33.262Z,10.10
2023-03-12T22:50:05.458Z,11.20
2023-03-12T22:52:39.649Z,11.30
2023-03-12T22:55:28.950Z,10.30
2023-03-12T22:58:16.286Z,9.80
2023-03-12T23:01:02.574Z,10.60
2023-03-12T23:03:48.188Z,11.40
2023-03-12T23:06:32.858Z,12.10
2023-03-12T23:11:42.921Z,11.20
2023-03-12T23:14:16.834Z,10.40
2023-03-12T23:16:50.904Z,10.90
2023-03-12T23:19:19.827Z,10.20
2023-03-12T23:22:12.533Z,10.20
2023-03-12T23:24:42.691Z,8.80
2023-03-12T23:27:12.005Z,9.60
2023-03-12T23:29:40.522Z,10.40
2023-03-12T23:32:10.364Z,9.40
2023-03-12T23:34:44.838Z,10.70
2023-03-12T23:37:22.626Z,10.80
2023-03-12T23:39:55.307Z,11.20
2023-03-12T23:42:31.516Z,12.40
2023-03-12T23:45:00.308Z,13.70
2023-03-12T23:47:31.266Z,14.70
2023-03-12T23:50:06.206Z,18.00
2023-03-12T23:52:34.730Z,21.20
2023-03-12T23:55:07.156Z,19.70
2023-03-12T23:57:41.409Z,18.20
